sensor_id;sensor_type;location;lat;lon;timestamp;P1;durP1;ratioP1;P2;durP2;ratioP2
48805;SDS011;34625;47.176;27.548;2023-05-10T00:01:13;7.63;;;5.57;;
48805;SDS011;34625;47.176;27.548;2023-05-10T00:03:39;7.75;;;5.72;;
48805;SDS011;34625;47.176;27.548;2023-05-10T00:06:06;15.88;;;5.43;;
48805;SDS011;34625;47.176;27.548;2023-05-10T00:08:32;7.18;;;5.15;;
48805;SDS011;34625;47.176;27.548;2023-05-10T00:10:58;8.20;;;5.68;;
48805;SDS011;34625;47.176;27.548;2023-05-10T00:13:24;8.27;;;5.25;;
48805;SDS011;34625;47.176;27.548;2023-05-10T00:15:50;8.48;;;4.82;;
48805;SDS011;34625;47.176;27.548;2023-05-10T00:18:16;7.93;;;5.43;;
48805;SDS011;34625;47.176;27.548;2023-05-10T00:20:42;7.97;;;5.63;;
48805;SDS011;34625;47.176;27.548;2023-05-10T00:23:08;10.18;;;5.68;;
48805;SDS011;34625;47.176;27.548;2023-05-10T00:25:34;7.40;;;5.28;;
48805;SDS011;34625;47.176;27.548;2023-05-10T00:28:00;10.23;;;6.15;;
48805;SDS011;34625;47.176;27.548;2023-05-10T00:30:27;7.95;;;5.53;;
48805;SDS011;34625;47.176;27.548;2023-05-10T00:32:54;8.85;;;5.68;;
48805;SDS011;34625;47.176;27.548;2023-05-10T00:35:20;6.43;;;4.68;;
48805;SDS011;34625;47.176;27.548;2023-05-10T00:37:47;7.65;;;5.32;;
48805;SDS011;34625;47.176;27.548;2023-05-10T00:40:13;7.68;;;5.38;;
48805;SDS011;34625;47.176;27.548;2023-05-10T00:42:42;8.30;;;5.30;;
48805;SDS011;34625;47.176;27.548;2023-05-10T00:45:09;13.85;;;6.05;;
48805;SDS011;34625;47.176;27.548;2023-05-10T00:47:35;11.90;;;5.85;;
48805;SDS011;34625;47.176;27.548;2023-05-10T00:50:01;8.77;;;5.30;;
48805;SDS011;34625;47.176;27.548;2023-05-10T00:52:28;9.13;;;5.80;;
48805;SDS011;34625;47.176;27.548;2023-05-10T00:54:54;10.13;;;5.22;;
48805;SDS011;34625;47.176;27.548;2023-05-10T00:57:21;6.97;;;4.95;;
48805;SDS011;34625;47.176;27.548;2023-05-10T00:59:47;6.30;;;5.13;;
48805;SDS011;34625;47.176;27.548;2023-05-10T01:02:14;6.78;;;4.72;;
48805;SDS011;34625;47.176;27.548;2023-05-10T01:04:40;7.50;;;4.88;;
48805;SDS011;34625;47.176;27.548;2023-05-10T01:07:06;8.82;;;5.53;;
48805;SDS011;34625;47.176;27.548;2023-05-10T01:09:32;6.13;;;4.78;;
48805;SDS011;34625;47.176;27.548;2023-05-10T01:11:59;6.38;;;4.68;;
48805;SDS011;34625;47.176;27.548;2023-05-10T01:14:28;8.48;;;4.95;;
48805;SDS011;34625;47.176;27.548;2023-05-10T01:16:54;8.80;;;4.80;;
48805;SDS011;34625;47.176;27.548;2023-05-10T01:19:28;6.68;;;4.93;;
48805;SDS011;34625;47.176;27.548;2023-05-10T01:27:13;6.85;;;5.10;;
48805;SDS011;34625;47.176;27.548;2023-05-10T01:35:18;9.20;;;5.72;;
48805;SDS011;34625;47.176;27.548;2023-05-10T01:40:48;12.65;;;5.85;;
48805;SDS011;34625;47.176;27.548;2023-05-10T01:43:24;5.80;;;4.72;;
48805;SDS011;34625;47.176;27.548;2023-05-10T01:46:07;10.52;;;4.55;;
48805;SDS011;34625;47.176;27.548;2023-05-10T01:48:40;10.98;;;5.38;;
48805;SDS011;34625;47.176;27.548;2023-05-10T01:51:14;6.43;;;5.22;;
48805;SDS011;34625;47.176;27.548;2023-05-10T01:53:46;7.45;;;4.70;;
48805;SDS011;34625;47.176;27.548;2023-05-10T01:56:15;12.30;;;5.20;;
48805;SDS011;34625;47.176;27.548;2023-05-10T01:58:43;5.32;;;4.57;;
48805;SDS011;34625;47.176;27.548;2023-05-10T02:01:12;6.28;;;4.75;;
48805;SDS011;34625;47.176;27.548;2023-05-10T02:03:39;10.18;;;5.63;;
48805;SDS011;34625;47.176;27.548;2023-05-10T02:06:08;8.20;;;5.50;;
48805;SDS011;34625;47.176;27.548;2023-05-10T02:08:35;9.77;;;5.60;;
48805;SDS011;34625;47.176;27.548;2023-05-10T02:11:03;8.57;;;5.25;;
48805;SDS011;34625;47.176;27.548;2023-05-10T02:13:31;7.85;;;5.25;;
48805;SDS011;34625;47.176;27.548;2023-05-10T02:16:01;9.85;;;5.32;;
48805;SDS011;34625;47.176;27.548;2023-05-10T02:18:28;5.70;;;4.97;;
48805;SDS011;34625;47.176;27.548;2023-05-10T02:20:56;6.32;;;5.28;;
48805;SDS011;34625;47.176;27.548;2023-05-10T02:23:24;7.60;;;5.32;;
48805;SDS011;34625;47.176;27.548;2023-05-10T02:25:51;6.80;;;5.53;;
48805;SDS011;34625;47.176;27.548;2023-05-10T02:28:20;8.32;;;5.28;;
48805;SDS011;34625;47.176;27.548;2023-05-10T02:30:48;10.02;;;5.78;;
48805;SDS011;34625;47.176;27.548;2023-05-10T02:33:16;8.00;;;5.72;;
48805;SDS011;34625;47.176;27.548;2023-05-10T02:35:44;6.35;;;5.10;;
48805;SDS011;34625;47.176;27.548;2023-05-10T02:38:12;7.82;;;5.22;;
48805;SDS011;34625;47.176;27.548;2023-05-10T02:40:40;7.85;;;5.53;;
48805;SDS011;34625;47.176;27.548;2023-05-10T02:43:09;8.80;;;5.72;;
48805;SDS011;34625;47.176;27.548;2023-05-10T02:45:39;9.30;;;5.35;;
48805;SDS011;34625;47.176;27.548;2023-05-10T02:48:08;8.13;;;5.50;;
48805;SDS011;34625;47.176;27.548;2023-05-10T02:50:34;6.78;;;5.05;;
48805;SDS011;34625;47.176;27.548;2023-05-10T02:53:11;7.78;;;6.10;;
48805;SDS011;34625;47.176;27.548;2023-05-10T02:55:41;9.13;;;5.30;;
48805;SDS011;34625;47.176;27.548;2023-05-10T02:58:14;8.35;;;5.65;;
48805;SDS011;34625;47.176;27.548;2023-05-10T03:00:40;9.05;;;5.63;;
48805;SDS011;34625;47.176;27.548;2023-05-10T03:03:06;10.70;;;7.00;;
48805;SDS011;34625;47.176;27.548;2023-05-10T03:05:33;10.18;;;6.15;;
48805;SDS011;34625;47.176;27.548;2023-05-10T03:08:01;10.20;;;5.28;;
48805;SDS011;34625;47.176;27.548;2023-05-10T03:10:29;7.55;;;5.65;;
48805;SDS011;34625;47.176;27.548;2023-05-10T03:13:16;6.53;;;5.72;;
48805;SDS011;34625;47.176;27.548;2023-05-10T03:18:29;8.65;;;5.20;;
48805;SDS011;34625;47.176;27.548;2023-05-10T03:21:07;8.68;;;5.88;;
48805;SDS011;34625;47.176;27.548;2023-05-10T03:26:15;6.72;;;5.25;;
48805;SDS011;34625;47.176;27.548;2023-05-10T03:28:46;9.45;;;6.00;;
48805;SDS011;34625;47.176;27.548;2023-05-10T03:31:13;7.13;;;5.47;;
48805;SDS011;34625;47.176;27.548;2023-05-10T03:33:50;8.52;;;5.70;;
48805;SDS011;34625;47.176;27.548;2023-05-10T03:36:22;8.68;;;5.72;;
48805;SDS011;34625;47.176;27.548;2023-05-10T03:38:48;9.38;;;5.45;;
48805;SDS011;34625;47.176;27.548;2023-05-10T03:41:14;10.00;;;5.97;;
48805;SDS011;34625;47.176;27.548;2023-05-10T03:43:40;8.25;;;5.15;;
48805;SDS011;34625;47.176;27.548;2023-05-10T03:46:06;10.05;;;5.95;;
48805;SDS011;34625;47.176;27.548;2023-05-10T03:48:33;8.23;;;5.65;;
48805;SDS011;34625;47.176;27.548;2023-05-10T03:51:00;11.48;;;6.50;;
48805;SDS011;34625;47.176;27.548;2023-05-10T03:53:26;9.57;;;6.15;;
48805;SDS011;34625;47.176;27.548;2023-05-10T03:55:52;8.93;;;5.30;;
48805;SDS011;34625;47.176;27.548;2023-05-10T03:58:18;8.20;;;6.20;;
48805;SDS011;34625;47.176;27.548;2023-05-10T04:00:44;8.25;;;5.90;;
48805;SDS011;34625;47.176;27.548;2023-05-10T04:03:12;9.30;;;5.70;;
48805;SDS011;34625;47.176;27.548;2023-05-10T04:05:38;9.68;;;6.15;;
48805;SDS011;34625;47.176;27.548;2023-05-10T04:08:05;11.90;;;6.32;;
48805;SDS011;34625;47.176;27.548;2023-05-10T04:10:31;9.40;;;6.10;;
48805;SDS011;34625;47.176;27.548;2023-05-10T04:12:57;12.38;;;5.38;;
48805;SDS011;34625;47.176;27.548;2023-05-10T04:15:23;11.13;;;5.90;;
48805;SDS011;34625;47.176;27.548;2023-05-10T04:17:49;7.93;;;5.35;;
48805;SDS011;34625;47.176;27.548;2023-05-10T04:20:16;10.25;;;5.82;;
48805;SDS011;34625;47.176;27.548;2023-05-10T04:22:42;8.10;;;5.70;;
48805;SDS011;34625;47.176;27.548;2023-05-10T04:25:08;9.57;;;7.55;;
48805;SDS011;34625;47.176;27.548;2023-05-10T04:27:35;14.40;;;9.15;;
48805;SDS011;34625;47.176;27.548;2023-05-10T04:30:01;14.35;;;7.55;;
48805;SDS011;34625;47.176;27.548;2023-05-10T04:32:29;13.15;;;7.03;;
48805;SDS011;34625;47.176;27.548;2023-05-10T04:34:56;8.63;;;6.65;;
48805;SDS011;34625;47.176;27.548;2023-05-10T04:37:22;12.70;;;6.80;;
48805;SDS011;34625;47.176;27.548;2023-05-10T04:39:48;11.43;;;6.90;;
48805;SDS011;34625;47.176;27.548;2023-05-10T04:42:14;11.35;;;7.03;;
48805;SDS011;34625;47.176;27.548;2023-05-10T04:44:40;10.88;;;6.43;;
48805;SDS011;34625;47.176;27.548;2023-05-10T04:47:06;10.10;;;6.25;;
48805;SDS011;34625;47.176;27.548;2023-05-10T04:49:32;13.00;;;6.32;;
48805;SDS011;34625;47.176;27.548;2023-05-10T04:51:58;10.52;;;7.88;;
48805;SDS011;34625;47.176;27.548;2023-05-10T04:54:24;10.07;;;5.55;;
48805;SDS011;34625;47.176;27.548;2023-05-10T04:56:50;6.43;;;4.32;;
48805;SDS011;34625;47.176;27.548;2023-05-10T04:59:16;7.90;;;4.60;;
48805;SDS011;34625;47.176;27.548;2023-05-10T05:01:43;6.93;;;5.00;;
48805;SDS011;34625;47.176;27.548;2023-05-10T05:04:09;9.90;;;5.85;;
48805;SDS011;34625;47.176;27.548;2023-05-10T05:06:35;9.57;;;5.55;;
48805;SDS011;34625;47.176;27.548;2023-05-10T05:09:00;11.25;;;5.63;;
48805;SDS011;34625;47.176;27.548;2023-05-10T05:11:27;10.95;;;6.03;;
48805;SDS011;34625;47.176;27.548;2023-05-10T05:13:53;9.60;;;6.55;;
48805;SDS011;34625;47.176;27.548;2023-05-10T05:16:19;9.65;;;6.20;;
48805;SDS011;34625;47.176;27.548;2023-05-10T05:18:45;9.23;;;6.43;;
48805;SDS011;34625;47.176;27.548;2023-05-10T05:21:15;14.30;;;6.88;;
48805;SDS011;34625;47.176;27.548;2023-05-10T05:23:42;9.57;;;6.40;;
48805;SDS011;34625;47.176;27.548;2023-05-10T05:26:09;11.77;;;6.55;;
48805;SDS011;34625;47.176;27.548;2023-05-10T05:28:35;11.98;;;6.05;;
48805;SDS011;34625;47.176;27.548;2023-05-10T05:31:05;12.82;;;6.20;;
48805;SDS011;34625;47.176;27.548;2023-05-10T05:33:34;9.60;;;6.50;;
48805;SDS011;34625;47.176;27.548;2023-05-10T05:36:00;9.32;;;7.03;;
48805;SDS011;34625;47.176;27.548;2023-05-10T05:38:27;9.07;;;6.13;;
48805;SDS011;34625;47.176;27.548;2023-05-10T05:40:53;8.68;;;5.40;;
48805;SDS011;34625;47.176;27.548;2023-05-10T05:43:20;9.60;;;5.57;;
48805;SDS011;34625;47.176;27.548;2023-05-10T05:45:46;10.45;;;5.88;;
48805;SDS011;34625;47.176;27.548;2023-05-10T05:48:12;10.57;;;6.00;;
48805;SDS011;34625;47.176;27.548;2023-05-10T05:50:38;10.70;;;5.88;;
48805;SDS011;34625;47.176;27.548;2023-05-10T05:53:04;11.13;;;6.57;;
48805;SDS011;34625;47.176;27.548;2023-05-10T05:55:30;7.45;;;5.82;;
48805;SDS011;34625;47.176;27.548;2023-05-10T05:57:57;9.90;;;4.90;;
48805;SDS011;34625;47.176;27.548;2023-05-10T06:00:23;9.30;;;5.00;;
48805;SDS011;34625;47.176;27.548;2023-05-10T06:02:49;9.73;;;4.50;;
48805;SDS011;34625;47.176;27.548;2023-05-10T06:05:15;13.18;;;5.53;;
48805;SDS011;34625;47.176;27.548;2023-05-10T06:07:41;13.50;;;4.53;;
48805;SDS011;34625;47.176;27.548;2023-05-10T06:10:08;7.10;;;4.07;;
48805;SDS011;34625;47.176;27.548;2023-05-10T06:12:34;9.70;;;5.10;;
48805;SDS011;34625;47.176;27.548;2023-05-10T06:15:01;11.60;;;5.03;;
48805;SDS011;34625;47.176;27.548;2023-05-10T06:17:29;10.45;;;5.18;;
48805;SDS011;34625;47.176;27.548;2023-05-10T06:19:55;7.80;;;4.40;;
48805;SDS011;34625;47.176;27.548;2023-05-10T06:22:21;12.48;;;4.15;;
48805;SDS011;34625;47.176;27.548;2023-05-10T06:24:48;10.60;;;4.05;;
48805;SDS011;34625;47.176;27.548;2023-05-10T06:27:15;7.43;;;5.53;;
48805;SDS011;34625;47.176;27.548;2023-05-10T06:29:41;8.52;;;5.88;;
48805;SDS011;34625;47.176;27.548;2023-05-10T06:32:07;9.45;;;5.65;;
48805;SDS011;34625;47.176;27.548;2023-05-10T06:34:33;9.43;;;4.82;;
48805;SDS011;34625;47.176;27.548;2023-05-10T06:36:59;8.57;;;5.38;;
48805;SDS011;34625;47.176;27.548;2023-05-10T06:39:25;10.60;;;4.40;;
48805;SDS011;34625;47.176;27.548;2023-05-10T06:41:51;6.13;;;3.83;;
48805;SDS011;34625;47.176;27.548;2023-05-10T06:44:18;5.32;;;3.75;;
48805;SDS011;34625;47.176;27.548;2023-05-10T06:46:44;7.05;;;4.78;;
48805;SDS011;34625;47.176;27.548;2023-05-10T06:49:10;8.40;;;3.50;;
48805;SDS011;34625;47.176;27.548;2023-05-10T06:51:36;6.22;;;2.60;;
48805;SDS011;34625;47.176;27.548;2023-05-10T06:54:02;6.57;;;4.07;;
48805;SDS011;34625;47.176;27.548;2023-05-10T06:56:28;7.15;;;3.97;;
48805;SDS011;34625;47.176;27.548;2023-05-10T06:58:54;7.03;;;4.47;;
48805;SDS011;34625;47.176;27.548;2023-05-10T07:01:21;5.72;;;3.75;;
48805;SDS011;34625;47.176;27.548;2023-05-10T07:03:47;7.30;;;4.18;;
48805;SDS011;34625;47.176;27.548;2023-05-10T07:06:13;5.03;;;3.65;;
48805;SDS011;34625;47.176;27.548;2023-05-10T07:08:39;9.75;;;4.75;;
48805;SDS011;34625;47.176;27.548;2023-05-10T07:11:05;4.97;;;4.03;;
48805;SDS011;34625;47.176;27.548;2023-05-10T07:13:38;7.05;;;3.63;;
48805;SDS011;34625;47.176;27.548;2023-05-10T07:16:06;7.90;;;4.13;;
48805;SDS011;34625;47.176;27.548;2023-05-10T07:18:33;6.20;;;3.05;;
48805;SDS011;34625;47.176;27.548;2023-05-10T07:20:59;9.25;;;2.90;;
48805;SDS011;34625;47.176;27.548;2023-05-10T07:23:25;3.58;;;2.22;;
48805;SDS011;34625;47.176;27.548;2023-05-10T07:25:52;3.63;;;1.92;;
48805;SDS011;34625;47.176;27.548;2023-05-10T07:28:18;7.47;;;2.17;;
48805;SDS011;34625;47.176;27.548;2023-05-10T07:30:45;2.92;;;1.95;;
48805;SDS011;34625;47.176;27.548;2023-05-10T07:33:12;2.53;;;2.28;;
48805;SDS011;34625;47.176;27.548;2023-05-10T07:35:38;2.90;;;1.95;;
48805;SDS011;34625;47.176;27.548;2023-05-10T07:38:05;5.80;;;1.92;;
48805;SDS011;34625;47.176;27.548;2023-05-10T07:40:31;6.38;;;2.30;;
48805;SDS011;34625;47.176;27.548;2023-05-10T07:42:57;5.80;;;2.58;;
48805;SDS011;34625;47.176;27.548;2023-05-10T07:45:23;6.50;;;2.50;;
48805;SDS011;34625;47.176;27.548;2023-05-10T07:47:49;1.60;;;1.48;;
48805;SDS011;34625;47.176;27.548;2023-05-10T07:50:15;5.80;;;2.38;;
48805;SDS011;34625;47.176;27.548;2023-05-10T07:52:41;2.97;;;2.33;;
48805;SDS011;34625;47.176;27.548;2023-05-10T07:55:07;3.80;;;2.10;;
48805;SDS011;34625;47.176;27.548;2023-05-10T07:57:34;2.72;;;1.92;;
48805;SDS011;34625;47.176;27.548;2023-05-10T08:00:00;2.15;;;1.63;;
48805;SDS011;34625;47.176;27.548;2023-05-10T08:02:26;3.80;;;1.65;;
48805;SDS011;34625;47.176;27.548;2023-05-10T08:04:53;1.83;;;1.55;;
48805;SDS011;34625;47.176;27.548;2023-05-10T08:07:19;1.85;;;1.33;;
48805;SDS011;34625;47.176;27.548;2023-05-10T08:09:45;2.17;;;1.70;;
48805;SDS011;34625;47.176;27.548;2023-05-10T08:12:11;1.58;;;1.25;;
48805;SDS011;34625;47.176;27.548;2023-05-10T08:14:38;1.33;;;1.13;;
48805;SDS011;34625;47.176;27.548;2023-05-10T08:17:04;5.72;;;1.75;;
48805;SDS011;34625;47.176;27.548;2023-05-10T08:19:30;1.83;;;1.45;;
48805;SDS011;34625;47.176;27.548;2023-05-10T08:21:56;2.13;;;1.73;;
48805;SDS011;34625;47.176;27.548;2023-05-10T08:24:22;4.05;;;1.77;;
48805;SDS011;34625;47.176;27.548;2023-05-10T08:26:48;1.77;;;1.58;;
48805;SDS011;34625;47.176;27.548;2023-05-10T08:29:14;3.33;;;1.73;;
48805;SDS011;34625;47.176;27.548;2023-05-10T08:31:40;2.97;;;1.40;;
48805;SDS011;34625;47.176;27.548;2023-05-10T08:34:06;2.08;;;1.55;;
48805;SDS011;34625;47.176;27.548;2023-05-10T08:36:32;5.47;;;2.00;;
48805;SDS011;34625;47.176;27.548;2023-05-10T08:38:58;2.33;;;2.05;;
48805;SDS011;34625;47.176;27.548;2023-05-10T08:41:24;3.08;;;1.90;;
48805;SDS011;34625;47.176;27.548;2023-05-10T08:43:51;1.73;;;1.63;;
48805;SDS011;34625;47.176;27.548;2023-05-10T08:46:19;3.17;;;1.80;;
48805;SDS011;34625;47.176;27.548;2023-05-10T08:48:46;2.10;;;1.60;;
48805;SDS011;34625;47.176;27.548;2023-05-10T08:51:16;4.00;;;2.10;;
48805;SDS011;34625;47.176;27.548;2023-05-10T08:53:44;8.65;;;2.50;;
48805;SDS011;34625;47.176;27.548;2023-05-10T08:56:11;3.10;;;1.83;;
48805;SDS011;34625;47.176;27.548;2023-05-10T08:58:37;1.98;;;1.73;;
48805;SDS011;34625;47.176;27.548;2023-05-10T09:01:05;2.47;;;2.08;;
48805;SDS011;34625;47.176;27.548;2023-05-10T09:03:31;4.50;;;2.05;;
48805;SDS011;34625;47.176;27.548;2023-05-10T09:05:57;1.60;;;1.48;;
48805;SDS011;34625;47.176;27.548;2023-05-10T09:08:24;2.47;;;1.90;;
48805;SDS011;34625;47.176;27.548;2023-05-10T09:10:51;2.67;;;1.98;;
48805;SDS011;34625;47.176;27.548;2023-05-10T09:13:17;4.30;;;2.00;;
48805;SDS011;34625;47.176;27.548;2023-05-10T09:15:45;3.13;;;1.50;;
48805;SDS011;34625;47.176;27.548;2023-05-10T09:18:11;5.13;;;1.55;;
48805;SDS011;34625;47.176;27.548;2023-05-10T09:20:38;3.25;;;1.73;;
48805;SDS011;34625;47.176;27.548;2023-05-10T09:23:04;6.00;;;1.70;;
48805;SDS011;34625;47.176;27.548;2023-05-10T09:25:30;2.60;;;1.80;;
48805;SDS011;34625;47.176;27.548;2023-05-10T09:27:59;2.15;;;1.38;;
48805;SDS011;34625;47.176;27.548;2023-05-10T09:30:28;3.50;;;1.58;;
48805;SDS011;34625;47.176;27.548;2023-05-10T09:32:56;1.50;;;1.27;;
48805;SDS011;34625;47.176;27.548;2023-05-10T09:35:24;1.17;;;1.13;;
48805;SDS011;34625;47.176;27.548;2023-05-10T09:37:53;1.70;;;1.52;;
48805;SDS011;34625;47.176;27.548;2023-05-10T09:40:20;0.95;;;0.88;;
48805;SDS011;34625;47.176;27.548;2023-05-10T09:42:55;2.00;;;1.52;;
48805;SDS011;34625;47.176;27.548;2023-05-10T09:45:34;3.33;;;1.38;;
48805;SDS011;34625;47.176;27.548;2023-05-10T09:48:01;1.30;;;1.20;;
48805;SDS011;34625;47.176;27.548;2023-05-10T09:50:28;5.63;;;1.55;;
48805;SDS011;34625;47.176;27.548;2023-05-10T09:52:56;4.07;;;1.10;;
48805;SDS011;34625;47.176;27.548;2023-05-10T09:58:02;2.05;;;1.65;;
48805;SDS011;34625;47.176;27.548;2023-05-10T10:00:34;4.07;;;1.73;;
48805;SDS011;34625;47.176;27.548;2023-05-10T10:03:04;2.70;;;1.77;;
48805;SDS011;34625;47.176;27.548;2023-05-10T10:05:35;1.48;;;1.30;;
48805;SDS011;34625;47.176;27.548;2023-05-10T10:08:05;1.70;;;1.60;;
48805;SDS011;34625;47.176;27.548;2023-05-10T10:10:31;2.00;;;1.63;;
48805;SDS011;34625;47.176;27.548;2023-05-10T10:12:58;1.83;;;1.35;;
48805;SDS011;34625;47.176;27.548;2023-05-10T10:15:25;6.18;;;3.03;;
48805;SDS011;34625;47.176;27.548;2023-05-10T10:17:52;6.00;;;2.85;;
48805;SDS011;34625;47.176;27.548;2023-05-10T10:20:19;2.53;;;2.00;;
48805;SDS011;34625;47.176;27.548;2023-05-10T10:22:46;5.47;;;1.60;;
48805;SDS011;34625;47.176;27.548;2023-05-10T10:25:14;3.13;;;2.00;;
48805;SDS011;34625;47.176;27.548;2023-05-10T10:35:43;5.38;;;1.40;;
48805;SDS011;34625;47.176;27.548;2023-05-10T10:38:11;3.75;;;2.25;;
48805;SDS011;34625;47.176;27.548;2023-05-10T10:40:38;1.77;;;1.65;;
48805;SDS011;34625;47.176;27.548;2023-05-10T10:43:23;2.45;;;1.73;;
48805;SDS011;34625;47.176;27.548;2023-05-10T10:46:09;4.43;;;1.60;;
48805;SDS011;34625;47.176;27.548;2023-05-10T10:48:35;2.90;;;1.67;;
48805;SDS011;34625;47.176;27.548;2023-05-10T10:51:01;3.03;;;1.83;;
48805;SDS011;34625;47.176;27.548;2023-05-10T10:53:28;1.20;;;1.10;;
48805;SDS011;34625;47.176;27.548;2023-05-10T10:58:50;1.98;;;1.42;;
48805;SDS011;34625;47.176;27.548;2023-05-10T11:01:18;3.65;;;1.33;;
48805;SDS011;34625;47.176;27.548;2023-05-10T11:06:32;1.92;;;1.50;;
48805;SDS011;34625;47.176;27.548;2023-05-10T11:08:59;2.10;;;1.38;;
48805;SDS011;34625;47.176;27.548;2023-05-10T11:11:31;2.00;;;1.50;;
48805;SDS011;34625;47.176;27.548;2023-05-10T11:14:02;3.80;;;1.52;;
48805;SDS011;34625;47.176;27.548;2023-05-10T11:16:40;1.48;;;1.38;;
48805;SDS011;34625;47.176;27.548;2023-05-10T11:19:13;1.73;;;1.40;;
48805;SDS011;34625;47.176;27.548;2023-05-10T11:24:14;3.80;;;1.58;;
48805;SDS011;34625;47.176;27.548;2023-05-10T11:26:42;1.90;;;1.70;;
48805;SDS011;34625;47.176;27.548;2023-05-10T11:29:08;1.90;;;1.48;;
48805;SDS011;34625;47.176;27.548;2023-05-10T11:31:35;4.22;;;1.55;;
48805;SDS011;34625;47.176;27.548;2023-05-10T11:34:06;1.55;;;1.27;;
48805;SDS011;34625;47.176;27.548;2023-05-10T11:36:33;1.10;;;1.10;;
48805;SDS011;34625;47.176;27.548;2023-05-10T11:39:01;5.28;;;1.60;;
48805;SDS011;34625;47.176;27.548;2023-05-10T11:41:28;3.58;;;1.73;;
48805;SDS011;34625;47.176;27.548;2023-05-10T11:43:56;3.40;;;1.52;;
48805;SDS011;34625;47.176;27.548;2023-05-10T11:46:23;1.83;;;1.58;;
48805;SDS011;34625;47.176;27.548;2023-05-10T11:48:52;2.97;;;1.38;;
48805;SDS011;34625;47.176;27.548;2023-05-10T11:51:22;1.83;;;1.15;;
48805;SDS011;34625;47.176;27.548;2023-05-10T11:53:52;2.05;;;1.58;;
48805;SDS011;34625;47.176;27.548;2023-05-10T11:56:19;5.25;;;1.20;;
48805;SDS011;34625;47.176;27.548;2023-05-10T11:58:52;3.20;;;1.55;;
48805;SDS011;34625;47.176;27.548;2023-05-10T12:01:22;2.47;;;1.17;;
48805;SDS011;34625;47.176;27.548;2023-05-10T12:03:52;3.38;;;1.60;;
48805;SDS011;34625;47.176;27.548;2023-05-10T12:06:19;5.80;;;1.48;;
48805;SDS011;34625;47.176;27.548;2023-05-10T12:08:46;3.85;;;1.75;;
48805;SDS011;34625;47.176;27.548;2023-05-10T12:11:17;1.92;;;1.50;;
48805;SDS011;34625;47.176;27.548;2023-05-10T12:13:44;1.50;;;1.40;;
48805;SDS011;34625;47.176;27.548;2023-05-10T12:16:15;2.17;;;1.52;;
48805;SDS011;34625;47.176;27.548;2023-05-10T12:18:50;2.25;;;1.40;;
48805;SDS011;34625;47.176;27.548;2023-05-10T12:21:17;3.55;;;2.60;;
48805;SDS011;34625;47.176;27.548;2023-05-10T12:23:51;3.00;;;1.70;;
48805;SDS011;34625;47.176;27.548;2023-05-10T12:26:22;1.60;;;1.30;;
48805;SDS011;34625;47.176;27.548;2023-05-10T12:28:48;1.77;;;1.33;;
48805;SDS011;34625;47.176;27.548;2023-05-10T12:31:14;3.03;;;1.70;;
48805;SDS011;34625;47.176;27.548;2023-05-10T12:33:43;2.28;;;1.25;;
48805;SDS011;34625;47.176;27.548;2023-05-10T12:36:11;1.90;;;1.50;;
48805;SDS011;34625;47.176;27.548;2023-05-10T12:38:39;1.75;;;1.35;;
48805;SDS011;34625;47.176;27.548;2023-05-10T12:41:09;2.80;;;1.50;;
48805;SDS011;34625;47.176;27.548;2023-05-10T12:43:36;2.63;;;1.77;;
48805;SDS011;34625;47.176;27.548;2023-05-10T12:46:09;2.88;;;1.63;;
48805;SDS011;34625;47.176;27.548;2023-05-10T12:48:36;2.15;;;1.55;;
48805;SDS011;34625;47.176;27.548;2023-05-10T12:51:03;6.18;;;1.70;;
48805;SDS011;34625;47.176;27.548;2023-05-10T12:53:30;3.53;;;1.80;;
48805;SDS011;34625;47.176;27.548;2023-05-10T12:55:56;5.13;;;2.55;;
48805;SDS011;34625;47.176;27.548;2023-05-10T12:58:23;1.38;;;1.27;;
48805;SDS011;34625;47.176;27.548;2023-05-10T13:00:49;22.60;;;9.73;;
48805;SDS011;34625;47.176;27.548;2023-05-10T13:03:17;3.63;;;2.72;;
48805;SDS011;34625;47.176;27.548;2023-05-10T13:05:43;2.65;;;1.70;;
48805;SDS011;34625;47.176;27.548;2023-05-10T13:08:09;2.15;;;1.75;;
48805;SDS011;34625;47.176;27.548;2023-05-10T13:10:35;1.90;;;1.60;;
48805;SDS011;34625;47.176;27.548;2023-05-10T13:13:01;8.73;;;3.53;;
48805;SDS011;34625;47.176;27.548;2023-05-10T13:15:27;1.70;;;1.45;;
48805;SDS011;34625;47.176;27.548;2023-05-10T13:17:53;1.85;;;1.58;;
48805;SDS011;34625;47.176;27.548;2023-05-10T13:20:20;1.92;;;1.73;;
48805;SDS011;34625;47.176;27.548;2023-05-10T13:22:46;31.52;;;13.70;;
48805;SDS011;34625;47.176;27.548;2023-05-10T13:25:12;2.55;;;1.50;;
48805;SDS011;34625;47.176;27.548;2023-05-10T13:27:39;4.30;;;1.50;;
48805;SDS011;34625;47.176;27.548;2023-05-10T13:30:06;2.38;;;1.70;;
48805;SDS011;34625;47.176;27.548;2023-05-10T13:32:33;2.60;;;1.77;;
48805;SDS011;34625;47.176;27.548;2023-05-10T13:34:59;1.48;;;1.38;;
48805;SDS011;34625;47.176;27.548;2023-05-10T13:37:25;1.40;;;1.30;;
48805;SDS011;34625;47.176;27.548;2023-05-10T13:39:51;1.67;;;1.38;;
48805;SDS011;34625;47.176;27.548;2023-05-10T13:42:17;4.07;;;1.73;;
48805;SDS011;34625;47.176;27.548;2023-05-10T13:44:43;5.18;;;1.95;;
48805;SDS011;34625;47.176;27.548;2023-05-10T13:47:10;1.50;;;1.40;;
48805;SDS011;34625;47.176;27.548;2023-05-10T13:49:36;1.98;;;1.63;;
48805;SDS011;34625;47.176;27.548;2023-05-10T13:52:02;2.40;;;1.45;;
48805;SDS011;34625;47.176;27.548;2023-05-10T13:54:35;7.75;;;1.85;;
48805;SDS011;34625;47.176;27.548;2023-05-10T13:57:02;2.65;;;1.58;;
48805;SDS011;34625;47.176;27.548;2023-05-10T13:59:28;1.85;;;1.27;;
48805;SDS011;34625;47.176;27.548;2023-05-10T14:01:57;1.13;;;1.02;;
48805;SDS011;34625;47.176;27.548;2023-05-10T14:04:23;4.32;;;1.70;;
48805;SDS011;34625;47.176;27.548;2023-05-10T14:06:50;1.35;;;1.25;;
48805;SDS011;34625;47.176;27.548;2023-05-10T14:09:16;1.98;;;1.50;;
48805;SDS011;34625;47.176;27.548;2023-05-10T14:11:42;6.40;;;1.70;;
48805;SDS011;34625;47.176;27.548;2023-05-10T14:14:10;3.40;;;2.08;;
48805;SDS011;34625;47.176;27.548;2023-05-10T14:16:36;6.60;;;1.85;;
48805;SDS011;34625;47.176;27.548;2023-05-10T14:19:02;5.25;;;2.10;;
48805;SDS011;34625;47.176;27.548;2023-05-10T14:21:28;6.53;;;1.67;;
48805;SDS011;34625;47.176;27.548;2023-05-10T14:23:57;1.60;;;1.50;;
48805;SDS011;34625;47.176;27.548;2023-05-10T14:26:23;1.70;;;1.60;;
48805;SDS011;34625;47.176;27.548;2023-05-10T14:28:49;2.67;;;1.70;;
48805;SDS011;34625;47.176;27.548;2023-05-10T14:31:15;4.00;;;1.85;;
48805;SDS011;34625;47.176;27.548;2023-05-10T14:33:42;2.58;;;1.85;;
48805;SDS011;34625;47.176;27.548;2023-05-10T14:36:08;1.60;;;1.48;;
48805;SDS011;34625;47.176;27.548;2023-05-10T14:38:34;2.75;;;1.52;;
48805;SDS011;34625;47.176;27.548;2023-05-10T14:41:00;1.48;;;1.27;;
48805;SDS011;34625;47.176;27.548;2023-05-10T14:43:26;2.00;;;1.80;;
48805;SDS011;34625;47.176;27.548;2023-05-10T14:45:53;1.67;;;1.58;;
48805;SDS011;34625;47.176;27.548;2023-05-10T14:48:19;1.40;;;1.30;;
48805;SDS011;34625;47.176;27.548;2023-05-10T14:50:46;3.67;;;1.65;;
48805;SDS011;34625;47.176;27.548;2023-05-10T14:53:12;2.42;;;1.90;;
48805;SDS011;34625;47.176;27.548;2023-05-10T14:55:38;4.05;;;1.42;;
48805;SDS011;34625;47.176;27.548;2023-05-10T14:58:04;2.17;;;0.93;;
48805;SDS011;34625;47.176;27.548;2023-05-10T15:00:30;2.65;;;1.30;;
48805;SDS011;34625;47.176;27.548;2023-05-10T15:02:57;0.90;;;0.90;;
48805;SDS011;34625;47.176;27.548;2023-05-10T15:05:23;3.88;;;1.75;;
48805;SDS011;34625;47.176;27.548;2023-05-10T15:07:49;1.50;;;1.40;;
48805;SDS011;34625;47.176;27.548;2023-05-10T15:10:15;3.85;;;1.85;;
48805;SDS011;34625;47.176;27.548;2023-05-10T15:12:41;1.42;;;1.30;;